Agency, Missouri
Current Conditions -  °F | °C
As of 5:53 PM on Monday 20 Oct 2014 (Local Time) from KSTJ Reporting Station
Clear Clear  
Wind Chill: 22°   Ceiling: Unl
Heat Index: 22°   Visibility: 10mi
Dew Point:   Wind: 5mph
Humidity: 30%   Direction: 350°N
Pressure: 30.03"   Gusts: NA
Location:  39.64°N, 94.74°W
Report Text: KSTJ 202253Z 35004KT 10SM CLR 22/04 A3003 RMK AO2 SLP167 T02220039
Loading
Personal Weather Stations






























Interactive Weather Map
Tropical Storm Tracking
New forecast layout! Learn more

10-Day Weather Forecast

Advertisements
Track Severe Weather on mobile